Time;durP1;ratioP1;P1;durP2;ratioP2;P2;SDS_P1;SDS_P2;PMS_P1;PMS_P2;Temp;Humidity;BMP_temperature;BMP_pressure;BME280_temperature;BME280_humidity;BME280_pressure;Samples;Min_cycle;Max_cycle;Signal;HPM_P1;HPM_P2
2021/09/17 00:00:33;;;;;;;3.47;0.75;;;;;;;13.16;100.00;100901.09;5068836;28;20445;-73
2021/09/17 00:02:59;;;;;;;3.33;0.67;;;;;;;13.23;100.00;100905.59;5069393;28;20511;-73
2021/09/17 00:05:25;;;;;;;3.53;0.60;;;;;;;13.21;100.00;100902.25;5068858;28;20401;-72
2021/09/17 00:07:50;;;;;;;2.72;1.00;;;;;;;13.17;100.00;100892.06;5068149;28;20043;-73
2021/09/17 00:10:17;;;;;;;2.90;0.83;;;;;;;13.18;100.00;100901.75;5051286;28;20032;-73
2021/09/17 00:12:43;;;;;;;;;;;;;;;13.22;100.00;100903.09;5069291;28;20040;-73
2021/09/17 00:15:09;;;;;;;;;;;;;;;13.24;100.00;100898.38;5069397;28;19931;-73
2021/09/17 00:17:34;;;;;;;2.45;1.17;;;;;;;13.16;100.00;100903.78;5084700;28;19913;-73
2021/09/17 00:20:00;;;;;;;5.82;1.10;;;;;;;13.14;100.00;100903.13;5067816;28;20036;-73
2021/09/17 00:22:26;;;;;;;1.33;0.70;;;;;;;13.19;100.00;100911.47;5068776;28;20068;-72
2021/09/17 00:24:51;;;;;;;3.80;1.20;;;;;;;13.13;100.00;100899.59;5068837;28;20048;-73
2021/09/17 00:27:16;;;;;;;1.53;1.10;;;;;;;13.14;100.00;100908.50;5067692;28;20044;-73
2021/09/17 00:29:42;;;;;;;1.70;1.60;;;;;;;13.10;100.00;100905.31;5067395;28;20488;-73
2021/09/17 00:32:07;;;;;;;1.00;0.63;;;;;;;13.13;100.00;100910.31;5068611;28;20048;-72
2021/09/17 00:34:33;;;;;;;2.63;0.80;;;;;;;13.08;100.00;100913.53;5067049;28;20048;-73
2021/09/17 00:36:58;;;;;;;3.33;2.23;;;;;;;13.14;100.00;100901.28;5067594;28;20085;-73
2021/09/17 00:39:23;;;;;;;1.43;0.63;;;;;;;13.03;100.00;100899.81;5067395;28;20040;-72
2021/09/17 00:41:49;;;;;;;1.10;0.80;;;;;;;13.12;100.00;100910.50;5068368;28;20313;-73
2021/09/17 00:44:23;;;;;;;2.85;0.57;;;;;;;13.10;100.00;100899.97;5068443;28;20098;-72
2021/09/17 00:46:49;;;;;;;3.53;0.77;;;;;;;13.10;100.00;100906.16;5067466;28;20461;-73
2021/09/17 00:49:15;;;;;;;0.93;0.63;;;;;;;13.06;100.00;100894.13;5068139;28;20029;-73
2021/09/17 00:51:40;;;;;;;1.70;0.52;;;;;;;13.00;99.74;100905.53;5067514;28;20036;-73
2021/09/17 00:54:06;;;;;;;1.87;0.50;;;;;;;13.07;98.98;100886.91;5068139;28;20028;-72
2021/09/17 00:56:33;;;;;;;0.50;0.27;;;;;;;13.01;97.93;100890.28;5068250;28;20473;-73
2021/09/17 00:58:59;;;;;;;2.17;0.70;;;;;;;12.95;97.99;100886.47;5067935;28;20052;-72
2021/09/17 01:01:24;;;;;;;3.40;0.50;;;;;;;12.95;98.28;100897.19;5067559;28;20044;-72
2021/09/17 01:03:50;;;;;;;3.80;0.40;;;;;;;12.92;97.93;100894.84;5067188;28;20036;-73
2021/09/17 01:06:15;;;;;;;0.40;0.37;;;;;;;12.92;96.61;100904.72;5067072;28;20373;-73
2021/09/17 01:08:41;;;;;;;1.07;0.40;;;;;;;12.85;96.67;100893.88;5067709;28;20072;-72
2021/09/17 01:11:07;;;;;;;0.87;0.30;;;;;;;12.87;97.03;100895.34;5067686;28;20028;-73
2021/09/17 01:13:34;;;;;;;6.13;0.50;;;;;;;12.71;96.70;100894.59;5068185;28;20425;-73
2021/09/17 01:15:59;;;;;;;1.95;0.30;;;;;;;12.77;96.60;100907.31;5068000;28;20032;-73
2021/09/17 01:18:26;;;;;;;2.73;0.23;;;;;;;12.72;96.95;100901.63;5066847;28;20040;-73
2021/09/17 01:20:57;;;;;;;0.20;0.20;;;;;;;12.72;96.13;100904.31;5068108;28;20111;-72
2021/09/17 01:23:23;;;;;;;1.92;0.22;;;;;;;12.67;95.66;100905.66;5068106;28;20032;-73
2021/09/17 01:25:48;;;;;;;0.53;0.30;;;;;;;12.67;95.61;100904.84;5066736;28;20470;-72
2021/09/17 01:28:14;;;;;;;1.70;0.20;;;;;;;12.66;95.20;100895.09;5067920;28;20078;-73
2021/09/17 01:30:39;;;;;;;0.20;0.10;;;;;;;12.65;95.04;100901.50;5066712;28;20067;-73
2021/09/17 01:33:05;;;;;;;0.23;0.20;;;;;;;12.60;94.67;100887.78;5050448;28;20317;-73
2021/09/17 01:35:30;;;;;;;0.10;0.10;;;;;;;12.58;93.62;100895.97;5067582;28;20343;-73
2021/09/17 01:37:55;;;;;;;0.87;0.30;;;;;;;12.57;94.22;100898.81;5067660;28;20074;-72
2021/09/17 01:40:21;;;;;;;0.40;0.20;;;;;;;12.54;93.63;100893.81;5067494;28;20036;-72
2021/09/17 01:42:47;;;;;;;0.30;0.30;;;;;;;12.52;93.58;100887.78;5066939;28;20458;-72
2021/09/17 01:45:13;;;;;;;0.30;0.20;;;;;;;12.56;93.91;100887.28;5066554;28;20042;-72
2021/09/17 01:47:39;;;;;;;0.45;0.20;;;;;;;12.55;94.37;100890.13;5068474;28;20049;-72
2021/09/17 01:50:05;;;;;;;0.38;0.20;;;;;;;12.59;94.32;100889.59;5070173;28;20060;-72
2021/09/17 01:52:31;;;;;;;0.82;0.60;;;;;;;12.50;95.19;100887.94;5069905;28;20032;-73
2021/09/17 01:54:56;;;;;;;0.63;0.20;;;;;;;12.57;95.60;100893.47;5071049;28;20035;-72
2021/09/17 01:57:22;;;;;;;1.15;0.43;;;;;;;12.55;95.48;100888.28;5070411;28;20486;-73
2021/09/17 01:59:47;;;;;;;1.70;0.30;;;;;;;12.52;95.83;100890.47;5070270;28;20181;-72
2021/09/17 02:02:13;;;;;;;0.20;0.20;;;;;;;12.48;95.71;100890.00;5071139;28;20036;-72
2021/09/17 02:04:38;;;;;;;1.00;0.33;;;;;;;12.50;95.67;100887.94;5071219;28;20373;-73
2021/09/17 02:07:04;;;;;;;0.47;0.30;;;;;;;12.40;96.29;100903.38;5071022;28;20051;-73
2021/09/17 02:09:29;;;;;;;0.33;0.33;;;;;;;12.41;96.21;100900.53;5070606;28;20294;-73
2021/09/17 02:11:54;;;;;;;0.30;0.20;;;;;;;12.41;96.37;100899.72;5070174;28;20157;-73
2021/09/17 02:14:20;;;;;;;2.40;0.30;;;;;;;12.36;96.35;100891.34;5070093;28;20357;-72
2021/09/17 02:16:45;;;;;;;1.13;0.20;;;;;;;12.40;96.75;100887.31;5069917;28;20020;-73
2021/09/17 02:19:10;;;;;;;1.23;0.30;;;;;;;12.35;96.61;100884.31;5053262;28;20051;-73
2021/09/17 02:21:55;;;;;;;0.93;0.30;;;;;;;12.38;96.80;100892.00;5071247;28;20572;-72
2021/09/17 02:24:21;;;;;;;0.93;0.28;;;;;;;12.44;96.13;100883.31;5070858;28;20048;-72
2021/09/17 02:26:46;;;;;;;0.60;0.20;;;;;;;12.40;96.13;100898.84;5070735;28;20361;-72
2021/09/17 02:29:12;;;;;;;1.63;0.20;;;;;;;12.45;96.27;100883.13;5070481;28;20113;-72
2021/09/17 02:31:37;;;;;;;0.37;0.20;;;;;;;12.33;96.23;100886.34;5070664;28;20872;-73
2021/09/17 02:34:22;;;;;;;0.50;0.32;;;;;;;12.36;96.79;100891.34;5070961;28;20059;-72
2021/09/17 02:36:47;;;;;;;0.45;0.20;;;;;;;12.30;96.69;100881.34;5070560;28;20127;-72
2021/09/17 02:39:15;;;;;;;2.10;0.23;;;;;;;12.28;97.91;100889.53;5070468;28;20108;-72
2021/09/17 02:41:41;;;;;;;1.92;0.60;;;;;;;12.34;97.45;100899.56;5069614;28;20033;-72
2021/09/17 02:44:07;;;;;;;2.10;0.35;;;;;;;12.24;97.25;100888.19;5069425;28;20347;-72
2021/09/17 02:46:51;;;;;;;0.88;0.32;;;;;;;12.31;97.75;100885.66;5069823;28;20090;-72
2021/09/17 02:49:16;;;;;;;2.95;0.30;;;;;;;12.25;97.72;100897.91;5069959;28;20065;-72
2021/09/17 02:51:42;;;;;;;1.07;0.27;;;;;;;12.18;98.22;100895.06;5069458;28;20064;-72
2021/09/17 02:54:07;;;;;;;2.63;0.77;;;;;;;12.27;99.01;100906.59;5052488;28;20036;-72
2021/09/17 02:56:33;;;;;;;0.97;0.57;;;;;;;12.16;99.42;100905.09;5069226;28;20048;-73
2021/09/17 02:58:59;;;;;;;1.02;0.50;;;;;;;12.10;99.71;100902.25;5069513;28;20128;-72
2021/09/17 03:01:24;;;;;;;3.00;0.33;;;;;;;12.11;100.00;100911.97;5070331;28;20602;-72
2021/09/17 03:03:49;;;;;;;2.07;0.57;;;;;;;12.10;100.00;100919.13;5069081;28;20033;-72
2021/09/17 03:06:15;;;;;;;1.13;0.50;;;;;;;12.00;100.00;100913.13;5069952;28;20036;-72
2021/09/17 03:08:40;;;;;;;0.97;0.77;;;;;;;12.02;100.00;100916.47;5069159;28;20029;-72
2021/09/17 03:11:06;;;;;;;0.80;0.40;;;;;;;12.01;100.00;100914.78;5070086;28;20443;-72
2021/09/17 03:13:31;;;;;;;2.47;0.57;;;;;;;11.90;100.00;100917.81;5069927;28;20116;-72
2021/09/17 03:15:57;;;;;;;4.90;0.77;;;;;;;11.92;100.00;100926.53;5068818;28;20040;-73
2021/09/17 03:18:22;;;;;;;0.63;0.43;;;;;;;11.96;100.00;100935.88;5069451;28;20123;-72
2021/09/17 03:20:50;;;;;;;2.97;0.90;;;;;;;11.86;100.00;100938.69;5069863;28;20033;-73
2021/09/17 03:23:34;;;;;;;2.80;1.15;;;;;;;11.80;100.00;100945.53;5069078;28;20047;-73
2021/09/17 03:26:00;;;;;;;2.10;1.50;;;;;;;11.71;100.00;100945.72;5069453;28;20366;-72
2021/09/17 03:28:26;;;;;;;1.88;1.05;;;;;;;11.76;100.00;100948.72;5069362;28;20032;-72
2021/09/17 03:30:51;;;;;;;;;;;;;;;11.66;100.00;100948.88;5069048;28;20047;-72
2021/09/17 03:33:17;;;;;;;;;;;;;;;11.69;100.00;100948.53;5070137;28;19908;-72
2021/09/17 03:35:44;;;;;;;1.57;1.07;;;;;;;11.72;100.00;100953.53;5069138;28;19964;-72
2021/09/17 03:38:10;;;;;;;1.50;0.90;;;;;;;11.75;100.00;100942.53;5068391;28;20036;-72
2021/09/17 03:40:37;;;;;;;1.50;0.95;;;;;;;11.73;100.00;100947.22;5068171;28;20036;-72
2021/09/17 03:43:04;;;;;;;2.50;1.08;;;;;;;11.74;100.00;100940.00;5051883;28;20059;-72
2021/09/17 03:45:31;;;;;;;2.40;0.88;;;;;;;11.79;100.00;100935.81;5068103;28;20095;-72
2021/09/17 03:48:04;;;;;;;3.80;1.13;;;;;;;11.76;100.00;100927.31;5067865;28;20055;-72
2021/09/17 03:50:29;;;;;;;1.33;0.98;;;;;;;11.84;100.00;100922.78;5068797;28;20040;-72
2021/09/17 03:52:55;;;;;;;1.40;1.07;;;;;;;11.81;100.00;100928.47;5068317;28;20146;-72
2021/09/17 03:55:20;;;;;;;1.80;0.83;;;;;;;11.79;100.00;100922.44;5051256;28;20058;-72
2021/09/17 03:57:46;;;;;;;2.20;1.10;;;;;;;11.75;100.00;100915.78;5069040;28;20449;-72
2021/09/17 04:00:12;;;;;;;2.83;1.23;;;;;;;11.79;100.00;100927.81;5068700;28;20144;-72
2021/09/17 04:02:38;;;;;;;6.60;1.75;;;;;;;11.83;100.00;100921.13;5067918;28;20032;-72
2021/09/17 04:05:03;;;;;;;2.63;1.10;;;;;;;11.80;100.00;100923.31;5068039;28;20043;-72
2021/09/17 04:07:29;;;;;;;2.22;1.10;;;;;;;11.79;100.00;100932.31;5067814;28;20385;-72
2021/09/17 04:09:54;;;;;;;4.67;1.03;;;;;;;11.82;100.00;100929.31;5049957;28;20043;-72
2021/09/17 04:12:20;;;;;;;1.00;0.90;;;;;;;11.78;100.00;100931.50;5068824;28;20032;-72
2021/09/17 04:14:46;;;;;;;1.63;1.00;;;;;;;11.77;100.00;100929.81;5067670;28;20031;-72
2021/09/17 04:17:11;;;;;;;2.30;1.25;;;;;;;11.78;100.00;100934.16;5067828;28;20443;-72
2021/09/17 04:19:37;;;;;;;2.13;1.40;;;;;;;11.75;100.00;100945.22;5068542;28;20169;-72
2021/09/17 04:22:04;;;;;;;1.63;0.90;;;;;;;11.67;100.00;100949.69;5068598;28;20038;-72
2021/09/17 04:24:30;;;;;;;2.10;1.55;;;;;;;11.70;100.00;100952.88;5068559;28;20461;-72
2021/09/17 04:26:55;;;;;;;1.98;1.45;;;;;;;11.64;100.00;100953.53;5067340;28;20032;-72
2021/09/17 04:29:20;;;;;;;3.10;1.30;;;;;;;11.62;100.00;100959.03;5068195;28;20067;-72
2021/09/17 04:31:46;;;;;;;1.50;1.40;;;;;;;11.74;100.00;100961.41;5067415;28;20513;-72
2021/09/17 04:34:11;;;;;;;3.30;1.43;;;;;;;11.69;100.00;100959.22;5068419;28;20060;-72
2021/09/17 04:36:37;;;;;;;1.87;1.57;;;;;;;11.66;100.00;100958.72;5068381;28;20051;-72
2021/09/17 04:39:02;;;;;;;3.50;1.80;;;;;;;11.64;100.00;100966.91;5068292;28;20117;-72
2021/09/17 04:41:28;;;;;;;5.30;1.67;;;;;;;11.58;100.00;100972.91;5068552;28;20036;-72
2021/09/17 04:43:53;;;;;;;3.60;2.20;;;;;;;11.54;100.00;100972.41;5068150;28;20068;-72
2021/09/17 04:46:18;;;;;;;3.43;1.70;;;;;;;11.61;100.00;100975.25;5068158;28;20040;-72
2021/09/17 04:48:44;;;;;;;3.23;2.13;;;;;;;11.59;100.00;100971.94;5066956;28;20032;-72
2021/09/17 04:51:09;;;;;;;3.00;1.57;;;;;;;11.63;100.00;100975.91;5068348;28;20460;-72
2021/09/17 04:53:34;;;;;;;1.90;1.47;;;;;;;11.59;100.00;100961.22;5068211;28;20037;-72
2021/09/17 04:56:00;;;;;;;2.13;1.40;;;;;;;11.54;100.00;100963.53;5068078;28;20137;-72
2021/09/17 04:58:26;;;;;;;2.95;1.50;;;;;;;11.46;100.00;100966.19;5067803;28;20783;-72
2021/09/17 05:00:51;;;;;;;1.50;0.87;;;;;;;11.52;100.00;100946.81;5068263;28;20107;-72
2021/09/17 05:03:17;;;;;;;1.90;1.20;;;;;;;11.51;100.00;100955.84;5068136;28;20047;-72
2021/09/17 05:05:42;;;;;;;3.30;1.00;;;;;;;11.49;100.00;100947.16;5067173;28;20075;-72
2021/09/17 05:08:08;;;;;;;3.03;1.23;;;;;;;11.54;100.00;100950.16;5050380;28;20130;-72
2021/09/17 05:10:33;;;;;;;1.23;1.00;;;;;;;11.49;100.00;100952.50;5067834;28;20041;-72
2021/09/17 05:12:59;;;;;;;2.10;1.07;;;;;;;11.49;100.00;100953.31;5050566;28;20210;-72
2021/09/17 05:15:24;;;;;;;1.67;1.20;;;;;;;11.48;100.00;100956.19;5067858;28;20045;-72
2021/09/17 05:17:50;;;;;;;3.25;1.10;;;;;;;11.46;100.00;100958.19;5067218;28;20473;-72
2021/09/17 05:20:16;;;;;;;3.33;1.27;;;;;;;11.55;100.00;100954.53;5066733;28;20025;-72
2021/09/17 05:22:42;;;;;;;2.08;1.23;;;;;;;11.54;100.00;100960.84;5054182;28;20143;-72
2021/09/17 05:25:08;;;;;;;1.98;1.20;;;;;;;11.47;100.00;100954.50;5071728;28;20182;-73
2021/09/17 05:27:34;;;;;;;3.42;1.40;;;;;;;11.48;100.00;100969.56;5072097;28;20035;-72
2021/09/17 05:29:59;;;;;;;4.07;1.40;;;;;;;11.47;100.00;100966.03;5071507;28;20036;-72
2021/09/17 05:32:25;;;;;;;2.87;1.60;;;;;;;11.43;100.00;100970.03;5054298;28;20039;-72
2021/09/17 05:34:50;;;;;;;1.50;1.40;;;;;;;11.44;100.00;100971.69;5070893;28;20064;-72
2021/09/17 05:37:16;;;;;;;1.33;1.00;;;;;;;11.51;100.00;100966.53;5071901;28;20036;-72
2021/09/17 05:39:42;;;;;;;1.90;0.90;;;;;;;11.52;100.00;100961.03;5071275;28;20055;-72
2021/09/17 05:42:08;;;;;;;2.38;0.60;;;;;;;11.52;100.00;100952.16;5072011;28;20029;-72
2021/09/17 05:44:33;;;;;;;1.35;0.50;;;;;;;11.49;100.00;100947.16;5071567;28;20515;-72
2021/09/17 05:46:58;;;;;;;1.20;0.80;;;;;;;11.49;100.00;100957.84;5071353;28;20032;-72
2021/09/17 05:49:24;;;;;;;0.73;0.60;;;;;;;11.41;100.00;100948.81;5070001;28;20047;-72
2021/09/17 05:51:49;;;;;;;3.23;0.50;;;;;;;11.35;100.00;100956.63;5071101;28;20037;-72
2021/09/17 05:54:15;;;;;;;0.65;0.65;;;;;;;11.30;100.00;100959.78;5071039;28;20038;-72
2021/09/17 05:56:41;;;;;;;11.95;1.05;;;;;;;11.24;100.00;100971.16;5070938;28;20028;-73
2021/09/17 05:59:06;;;;;;;0.57;0.57;;;;;;;11.26;100.00;100969.16;5070919;28;20357;-72
2021/09/17 06:01:31;;;;;;;2.47;0.80;;;;;;;11.28;100.00;100980.50;5070115;28;20044;-72
2021/09/17 06:03:57;;;;;;;1.40;0.90;;;;;;;11.34;100.00;100974.50;5071381;28;20993;-73
2021/09/17 06:06:23;;;;;;;1.65;0.90;;;;;;;11.38;100.00;100970.53;5070071;28;20123;-72
2021/09/17 06:08:50;;;;;;;1.65;0.90;;;;;;;11.27;100.00;100978.84;5070985;28;20458;-73
2021/09/17 06:11:16;;;;;;;0.80;0.80;;;;;;;11.46;100.00;100980.41;5070336;28;20044;-73
2021/09/17 06:13:41;;;;;;;0.50;0.50;;;;;;;11.46;100.00;100974.22;5071225;28;20278;-73
2021/09/17 06:16:07;;;;;;;3.73;1.27;;;;;;;11.59;100.00;100971.94;5070765;28;20032;-72
2021/09/17 06:18:33;;;;;;;0.57;0.57;;;;;;;11.65;100.00;100965.06;5053370;28;20067;-73
2021/09/17 06:20:58;;;;;;;3.63;0.87;;;;;;;11.60;100.00;100944.16;5053563;28;20071;-73
2021/09/17 06:23:25;;;;;;;0.73;0.60;;;;;;;11.51;100.00;100950.50;5069018;28;20093;-73
2021/09/17 06:25:51;;;;;;;1.38;1.25;;;;;;;11.63;100.00;100957.19;5069775;28;20056;-73
2021/09/17 06:28:16;;;;;;;2.13;1.03;;;;;;;11.66;100.00;100953.34;5070668;28;20458;-73
2021/09/17 06:30:41;;;;;;;0.83;0.60;;;;;;;11.66;99.68;100946.19;5069579;28;20044;-73
2021/09/17 06:33:07;;;;;;;1.67;0.80;;;;;;;11.65;99.66;100938.31;5068940;28;20037;-73
2021/09/17 06:35:34;;;;;;;1.37;1.10;;;;;;;11.69;99.57;100945.84;5070630;28;20086;-72
2021/09/17 06:37:59;;;;;;;2.33;0.80;;;;;;;11.69;99.31;100945.84;5069603;28;20167;-73
2021/09/17 06:40:28;;;;;;;1.50;0.70;;;;;;;11.73;99.18;100939.19;5070556;28;20482;-72
2021/09/17 06:42:55;;;;;;;1.33;0.77;;;;;;;11.75;99.34;100947.88;5052934;28;20362;-73
2021/09/17 06:45:21;;;;;;;1.42;0.50;;;;;;;11.71;99.06;100962.59;5070635;28;20097;-73
2021/09/17 06:47:49;;;;;;;1.80;0.60;;;;;;;11.56;98.68;100942.81;5052780;28;20442;-72
2021/09/17 06:50:16;;;;;;;1.10;0.68;;;;;;;11.57;98.29;100939.16;5070235;28;20093;-73
2021/09/17 06:52:47;;;;;;;1.30;0.80;;;;;;;11.59;98.92;100942.50;5070477;28;20040;-72
2021/09/17 06:55:21;;;;;;;2.97;0.90;;;;;;;11.67;99.22;100944.34;5070429;28;20032;-72
2021/09/17 06:57:49;;;;;;;1.75;0.75;;;;;;;11.69;98.91;100953.88;5070490;28;20032;-72
2021/09/17 07:00:16;;;;;;;2.15;0.70;;;;;;;11.58;98.55;100946.16;5070153;28;20072;-72
2021/09/17 07:02:43;;;;;;;0.45;0.45;;;;;;;11.57;98.99;100941.84;5069271;28;20028;-72
2021/09/17 07:05:08;;;;;;;1.23;0.65;;;;;;;11.79;99.40;100949.19;5070155;28;20032;-72
2021/09/17 07:07:34;;;;;;;1.30;0.70;;;;;;;11.88;98.92;100952.75;5070388;28;20037;-72
2021/09/17 07:09:59;;;;;;;3.00;0.50;;;;;;;11.89;98.33;100954.41;5068007;28;20036;-73
2021/09/17 07:12:25;;;;;;;1.70;0.47;;;;;;;11.74;97.67;100940.84;5069104;28;20105;-72
2021/09/17 07:14:50;;;;;;;1.45;0.60;;;;;;;11.73;96.88;100949.03;5069715;28;20037;-73
2021/09/17 07:17:16;;;;;;;1.77;0.50;;;;;;;11.80;96.58;100948.22;5069985;28;20054;-73
2021/09/17 07:19:41;;;;;;;3.13;0.40;;;;;;;11.92;96.42;100947.94;5068729;28;20082;-72
2021/09/17 07:22:07;;;;;;;3.67;0.80;;;;;;;12.04;96.86;100954.63;5069534;28;20040;-73
2021/09/17 07:24:33;;;;;;;1.02;0.40;;;;;;;11.97;95.83;100957.13;5067239;28;20614;-73
2021/09/17 07:26:58;;;;;;;1.20;0.80;;;;;;;12.01;95.82;100955.78;5067731;28;20045;-72
2021/09/17 07:29:24;;;;;;;2.03;0.50;;;;;;;12.10;94.71;100951.25;5066730;28;20033;-73
2021/09/17 07:31:49;;;;;;;2.50;0.40;;;;;;;11.97;94.01;100948.25;5066530;28;20096;-73
2021/09/17 07:34:14;;;;;;;0.73;0.50;;;;;;;12.17;94.38;100951.44;5066780;28;20066;-73
2021/09/17 07:36:40;;;;;;;2.30;0.40;;;;;;;12.19;93.50;100949.41;5067604;28;20044;-73
2021/09/17 07:39:05;;;;;;;0.63;0.60;;;;;;;12.18;93.22;100953.94;5068127;28;20033;-73
2021/09/17 07:41:31;;;;;;;0.53;0.40;;;;;;;12.20;92.95;100949.25;5068758;28;20116;-72
2021/09/17 07:43:56;;;;;;;0.60;0.60;;;;;;;12.14;92.32;100957.94;5069503;28;20043;-73
2021/09/17 07:46:21;;;;;;;0.63;0.50;;;;;;;12.27;92.32;100961.97;5067988;28;20644;-73
2021/09/17 07:48:47;;;;;;;1.67;0.30;;;;;;;12.33;91.66;100947.91;5069075;28;20032;-73
2021/09/17 07:51:12;;;;;;;0.93;0.30;;;;;;;12.28;91.75;100963.66;5068249;28;20052;-73
2021/09/17 07:53:38;;;;;;;1.83;0.50;;;;;;;12.33;92.01;100956.78;5068625;28;20466;-73
2021/09/17 07:56:03;;;;;;;0.97;0.60;;;;;;;12.31;90.84;100957.94;5068784;28;20059;-73
2021/09/17 07:58:29;;;;;;;0.70;0.37;;;;;;;12.41;91.02;100962.13;5051583;28;20119;-73
2021/09/17 08:00:54;;;;;;;0.30;0.30;;;;;;;12.43;91.43;100970.84;5068948;28;20063;-74
2021/09/17 08:03:21;;;;;;;0.87;0.60;;;;;;;12.59;91.55;100972.63;5068299;28;20040;-73
2021/09/17 08:05:47;;;;;;;2.45;0.50;;;;;;;12.45;90.96;100973.31;5068051;28;20098;-73
2021/09/17 08:08:13;;;;;;;3.08;0.50;;;;;;;12.40;91.03;100975.69;5069056;28;20063;-73
2021/09/17 08:10:38;;;;;;;0.93;0.33;;;;;;;12.39;91.38;100972.16;5067386;28;20071;-73
2021/09/17 08:13:04;;;;;;;0.53;0.40;;;;;;;12.43;90.45;100978.88;5069128;28;20060;-73
2021/09/17 08:15:29;;;;;;;0.37;0.30;;;;;;;12.36;90.64;100967.16;5068898;28;20515;-72
2021/09/17 08:17:55;;;;;;;2.10;0.40;;;;;;;12.53;90.30;100976.00;5067824;28;20042;-73
2021/09/17 08:20:21;;;;;;;0.87;0.40;;;;;;;12.66;90.67;100984.34;5067315;28;20373;-73
2021/09/17 08:22:47;;;;;;;1.20;0.40;;;;;;;12.72;89.03;100985.50;5068777;28;20286;-73
2021/09/17 08:25:13;;;;;;;2.33;0.43;;;;;;;12.77;89.03;100982.31;5068691;28;20051;-73
2021/09/17 08:27:39;;;;;;;1.37;0.37;;;;;;;12.80;88.69;100985.47;5067572;28;20457;-73
2021/09/17 08:30:06;;;;;;;1.02;0.50;;;;;;;12.75;89.66;101003.09;5068594;28;20616;-73
2021/09/17 08:32:32;;;;;;;0.70;0.30;;;;;;;12.80;88.37;100992.69;5068709;28;20025;-73
2021/09/17 08:34:58;;;;;;;2.83;0.40;;;;;;;12.88;88.66;100993.50;5067818;28;20066;-73
2021/09/17 08:37:24;;;;;;;0.77;0.40;;;;;;;13.18;88.54;100995.56;5068337;28;20032;-72
2021/09/17 08:39:49;;;;;;;1.53;0.60;;;;;;;13.21;87.44;100987.22;5068310;28;20043;-73
2021/09/17 08:42:17;;;;;;;1.58;0.40;;;;;;;13.31;88.15;100993.22;5067413;28;20524;-73
2021/09/17 08:44:43;;;;;;;0.50;0.50;;;;;;;13.28;86.33;100990.91;5068398;28;20085;-73
2021/09/17 08:47:16;;;;;;;2.33;0.40;;;;;;;13.29;86.60;100995.25;5068357;28;20060;-72
2021/09/17 08:49:45;;;;;;;0.90;0.30;;;;;;;13.27;86.53;100997.22;5050854;28;20491;-73
2021/09/17 08:52:12;;;;;;;2.25;0.55;;;;;;;13.28;85.74;100993.56;5067305;28;20028;-73
2021/09/17 08:54:38;;;;;;;3.08;0.40;;;;;;;13.15;86.41;100998.63;5068127;28;20612;-73
2021/09/17 08:57:04;;;;;;;0.23;0.23;;;;;;;13.40;86.30;101000.22;5050063;28;20123;-73
2021/09/17 08:59:29;;;;;;;0.60;0.28;;;;;;;13.48;85.50;100999.34;5067059;28;20519;-73
2021/09/17 09:01:55;;;;;;;0.37;0.30;;;;;;;13.21;85.11;100992.56;5068274;28;20033;-72
2021/09/17 09:04:30;;;;;;;1.80;0.40;;;;;;;13.26;85.70;100995.56;5050426;28;20036;-72
2021/09/17 09:07:05;;;;;;;0.45;0.45;;;;;;;13.38;85.62;100988.84;5067046;28;20421;-73
2021/09/17 09:09:31;;;;;;;0.30;0.30;;;;;;;13.33;85.13;101001.09;5067723;28;20033;-73
2021/09/17 09:11:56;;;;;;;2.23;0.40;;;;;;;13.45;84.56;100999.69;5068162;28;20469;-73
2021/09/17 09:14:23;;;;;;;0.53;0.27;;;;;;;13.09;84.29;101001.00;5067914;28;20064;-73
2021/09/17 09:16:51;;;;;;;0.40;0.30;;;;;;;13.32;85.41;101004.78;5068008;28;20044;-73
2021/09/17 09:19:33;;;;;;;1.15;0.20;;;;;;;13.20;84.08;101006.97;5067856;28;20441;-73
2021/09/17 09:22:10;;;;;;;1.00;0.52;;;;;;;13.18;84.14;101003.63;5067973;28;20048;-72
2021/09/17 09:24:42;;;;;;;0.20;0.20;;;;;;;13.20;84.77;101002.44;5066834;28;20365;-73
2021/09/17 09:27:20;;;;;;;1.00;0.40;;;;;;;13.20;85.11;101007.81;5067827;28;20036;-72
2021/09/17 09:29:48;;;;;;;2.10;0.30;;;;;;;13.44;84.33;101003.41;5066575;28;20040;-73
2021/09/17 09:32:34;;;;;;;0.75;0.30;;;;;;;13.70;83.11;100992.38;5066839;28;20040;-73
2021/09/17 09:35:00;;;;;;;;;;;;;;;13.99;82.38;100988.13;5067171;28;20047;-73
2021/09/17 09:37:28;;;;;;;0.70;0.40;;;;;;;13.98;81.02;101002.56;5067671;28;19950;-73
2021/09/17 09:40:00;;;;;;;1.02;0.60;;;;;;;14.20;80.31;100999.03;5067250;28;20045;-73
2021/09/17 09:42:32;;;;;;;0.52;0.20;;;;;;;14.56;81.20;101007.34;5066823;28;20123;-73
2021/09/17 09:45:16;;;;;;;0.43;0.28;;;;;;;14.75;79.74;101003.28;5067721;28;20025;-73
2021/09/17 09:47:53;;;;;;;0.60;0.20;;;;;;;14.27;78.98;100994.63;5066424;28;20545;-72
2021/09/17 09:50:25;;;;;;;0.63;0.20;;;;;;;13.84;78.05;100990.78;5067368;28;20037;-72
2021/09/17 09:52:56;;;;;;;0.85;0.32;;;;;;;13.64;79.89;101009.97;5066764;28;20037;-73
2021/09/17 09:55:21;;;;;;;0.50;0.25;;;;;;;13.80;81.54;101016.28;5067550;28;20366;-73
2021/09/17 09:57:47;;;;;;;2.03;0.35;;;;;;;14.01;80.50;101005.72;5066621;28;20078;-73
2021/09/17 10:00:14;;;;;;;1.45;0.47;;;;;;;14.19;80.58;101004.59;5066544;28;20033;-73
2021/09/17 10:02:42;;;;;;;0.28;0.28;;;;;;;13.99;79.67;101001.56;5067656;28;20055;-72
2021/09/17 10:05:11;;;;;;;0.98;0.32;;;;;;;14.09;80.27;100996.78;5067483;28;20040;-72
2021/09/17 10:07:37;;;;;;;0.57;0.40;;;;;;;14.45;79.03;101001.53;5066479;28;20611;-73
2021/09/17 10:10:07;;;;;;;0.38;0.32;;;;;;;14.52;79.37;100997.09;5070629;28;20032;-72
2021/09/17 10:12:33;;;;;;;16.67;3.08;;;;;;;14.40;79.53;100994.03;5070962;28;20602;-73
2021/09/17 10:14:59;;;;;;;0.98;0.28;;;;;;;14.59;79.53;101002.63;5070047;28;20107;-72
2021/09/17 10:17:28;;;;;;;0.40;0.30;;;;;;;14.42;79.47;101001.88;5070200;28;20078;-72
2021/09/17 10:19:57;;;;;;;2.72;0.68;;;;;;;14.52;78.91;101008.69;5069899;28;20024;-73
2021/09/17 10:22:55;;;;;;;2.50;0.30;;;;;;;14.48;80.10;101009.22;5070818;28;20043;-72
2021/09/17 10:25:23;;;;;;;1.48;0.30;;;;;;;14.71;78.71;101012.72;5065621;28;20056;-73
2021/09/17 10:28:15;;;;;;;0.77;0.30;;;;;;;14.97;77.88;101001.53;5070726;28;20044;-73
2021/09/17 10:30:41;;;;;;;1.88;0.30;;;;;;;15.12;76.03;100993.44;5070472;28;20119;-72
2021/09/17 10:33:23;;;;;;;;;;;;;;;14.88;76.79;100991.88;5071342;28;20051;-73
2021/09/17 10:35:49;;;;;;;1.63;0.30;;;;;;;15.03;77.42;101004.50;5070468;28;19923;-73
2021/09/17 10:38:26;;;;;;;1.02;0.40;;;;;;;15.47;75.38;101000.94;5070719;28;20111;-73
2021/09/17 10:41:03;;;;;;;2.67;0.52;;;;;;;15.50;75.40;100998.72;5070477;28;20078;-73
2021/09/17 10:43:31;;;;;;;0.52;0.47;;;;;;;15.71;73.41;100986.34;5069483;28;20047;-72
2021/09/17 10:46:07;;;;;;;0.30;0.30;;;;;;;15.08;74.52;100997.56;5070095;28;20048;-72
2021/09/17 10:48:41;;;;;;;0.70;0.10;;;;;;;15.93;73.54;100982.63;5069257;28;20040;-72
2021/09/17 10:51:25;;;;;;;0.10;0.10;;;;;;;15.19;72.45;100974.72;5069601;28;20040;-72
2021/09/17 10:54:22;;;;;;;0.55;0.20;;;;;;;16.58;69.72;100966.41;5070523;28;20064;-73
2021/09/17 10:56:48;;;;;;;0.20;0.20;;;;;;;17.39;66.90;100960.44;5069424;28;20062;-72
2021/09/17 10:59:18;;;;;;;0.67;0.20;;;;;;;16.74;66.88;100966.13;5069301;28;20028;-72
2021/09/17 11:02:02;;;;;;;1.88;0.38;;;;;;;16.31;71.04;100982.38;5070260;28;20102;-73
2021/09/17 11:04:36;;;;;;;4.05;1.02;;;;;;;16.58;70.34;100993.38;5070241;28;20072;-73
2021/09/17 11:07:20;;;;;;;1.00;0.35;;;;;;;16.14;69.27;100981.81;5070103;28;20040;-73
2021/09/17 11:09:51;;;;;;;3.33;0.30;;;;;;;16.42;69.96;100983.72;5069425;28;20036;-72
2021/09/17 11:12:22;;;;;;;0.25;0.13;;;;;;;16.28;70.27;100990.00;5069187;28;20483;-73
2021/09/17 11:15:01;;;;;;;0.20;0.15;;;;;;;16.20;69.96;100988.28;5069764;28;20032;-73
2021/09/17 11:17:56;;;;;;;0.47;0.30;;;;;;;15.96;71.20;100994.88;5068646;28;20032;-72
2021/09/17 11:20:24;;;;;;;0.47;0.30;;;;;;;15.28;74.68;101005.88;5067737;28;20178;-73
2021/09/17 11:22:53;;;;;;;1.65;0.20;;;;;;;15.13;75.17;101021.19;5068722;28;20108;-72
2021/09/17 11:25:20;;;;;;;0.20;0.20;;;;;;;14.92;75.58;101017.38;5068864;28;20040;-72